createdAt,value
2017-07-17T00:00:26.006Z,99.99
2017-07-17T00:01:34.855Z,99.99
2017-07-17T00:02:43.708Z,99.99
2017-07-17T00:03:52.711Z,99.99
2017-07-17T00:05:01.566Z,99.99
2017-07-17T00:06:10.787Z,99.99
2017-07-17T00:07:19.644Z,99.99
2017-07-17T00:08:28.509Z,99.99
2017-07-17T00:09:37.649Z,99.99
2017-07-17T00:10:46.533Z,99.99
2017-07-17T00:11:55.358Z,99.99
2017-07-17T00:13:04.211Z,99.99
2017-07-17T00:14:13.067Z,99.99
2017-07-17T00:15:22.071Z,99.99
2017-07-17T00:16:30.927Z,99.99
2017-07-17T00:17:39.784Z,99.99
2017-07-17T00:18:48.644Z,99.99
2017-07-17T00:19:57.496Z,99.99
2017-07-17T00:21:06.651Z,99.99
2017-07-17T00:22:15.505Z,99.99
2017-07-17T00:23:24.357Z,99.99
2017-07-17T00:24:33.210Z,99.99
2017-07-17T00:25:42.065Z,99.99
2017-07-17T00:26:51.072Z,99.99
2017-07-17T00:27:59.930Z,99.99
2017-07-17T00:29:08.785Z,99.99
2017-07-17T00:30:17.641Z,99.99
2017-07-17T00:31:26.830Z,99.99
2017-07-17T00:32:35.835Z,99.99
2017-07-17T00:33:44.688Z,99.99
2017-07-17T00:34:53.876Z,99.99
2017-07-17T00:36:02.729Z,99.99
2017-07-17T00:37:11.590Z,99.99
2017-07-17T00:38:20.586Z,99.99
2017-07-17T00:39:29.441Z,99.99
2017-07-17T00:40:38.297Z,99.99
2017-07-17T00:41:47.151Z,99.99
2017-07-17T00:42:56.005Z,99.99
2017-07-17T00:44:04.859Z,99.99
2017-07-17T00:45:13.713Z,99.99
2017-07-17T00:46:22.569Z,99.99
2017-07-17T00:47:31.425Z,99.99
2017-07-17T00:48:40.278Z,99.99
2017-07-17T00:49:49.133Z,99.99
2017-07-17T00:50:57.986Z,99.99
2017-07-17T00:52:06.840Z,99.99
2017-07-17T00:53:15.695Z,99.99
2017-07-17T00:54:24.551Z,99.99
2017-07-17T00:55:33.403Z,99.99
2017-07-17T00:56:42.258Z,99.99
2017-07-17T00:57:51.116Z,99.99
2017-07-17T00:58:59.972Z,99.99
2017-07-17T01:00:08.823Z,99.99
2017-07-17T01:01:17.975Z,99.99
2017-07-17T01:02:26.830Z,99.99
2017-07-17T01:03:35.684Z,99.99
2017-07-17T01:04:44.535Z,99.99
2017-07-17T01:05:53.388Z,99.99
2017-07-17T01:07:02.293Z,99.99
2017-07-17T01:08:11.147Z,99.99
2017-07-17T01:09:20.002Z,99.99
2017-07-17T01:10:28.857Z,99.99
2017-07-17T01:11:37.712Z,99.99
2017-07-17T01:12:46.566Z,99.99
2017-07-17T01:13:55.424Z,99.99
2017-07-17T01:15:04.280Z,99.99
2017-07-17T01:16:13.134Z,99.99
2017-07-17T01:17:21.986Z,99.99
2017-07-17T01:18:30.992Z,99.99
2017-07-17T01:19:39.846Z,99.99
2017-07-17T01:20:48.701Z,99.99
2017-07-17T01:21:57.556Z,99.99
2017-07-17T01:23:06.409Z,99.99
2017-07-17T01:24:15.413Z,99.99
2017-07-17T01:25:24.267Z,99.99
2017-07-17T01:26:33.124Z,99.99
2017-07-17T01:27:41.979Z,99.99
2017-07-17T01:28:50.832Z,99.99
2017-07-17T01:29:59.885Z,99.99
2017-07-17T01:31:08.738Z,99.99
2017-07-17T01:32:17.597Z,99.99
2017-07-17T01:33:26.453Z,99.99
2017-07-17T01:34:35.305Z,99.99
2017-07-17T01:35:44.360Z,99.99
2017-07-17T01:36:53.216Z,99.99
2017-07-17T01:38:02.072Z,99.99
2017-07-17T01:39:10.929Z,99.99
2017-07-17T01:40:19.785Z,99.99
2017-07-17T01:41:28.689Z,99.99
2017-07-17T01:42:37.545Z,99.99
2017-07-17T01:43:46.401Z,99.99
2017-07-17T01:44:55.255Z,99.99
2017-07-17T01:46:04.109Z,99.99
2017-07-17T01:47:13.065Z,99.99
2017-07-17T01:48:21.919Z,99.99
2017-07-17T01:49:30.776Z,99.99
2017-07-17T01:50:39.631Z,99.99
2017-07-17T01:51:48.483Z,99.99
2017-07-17T01:52:57.640Z,99.99
2017-07-17T01:54:06.496Z,99.99
2017-07-17T01:55:15.350Z,99.99
2017-07-17T01:56:24.205Z,99.99
2017-07-17T01:57:33.058Z,99.99
2017-07-17T01:58:41.963Z,99.99
2017-07-17T01:59:50.821Z,99.99
2017-07-17T02:00:59.677Z,99.99
2017-07-17T02:02:08.538Z,99.99
2017-07-17T02:03:17.386Z,99.99
2017-07-17T02:04:26.289Z,99.99
2017-07-17T02:05:35.144Z,99.99
2017-07-17T02:06:44.000Z,99.99
2017-07-17T02:07:52.854Z,99.99
2017-07-17T02:09:01.708Z,99.99
2017-07-17T02:10:10.861Z,99.99
2017-07-17T02:11:19.717Z,99.99
2017-07-17T02:12:28.574Z,99.99
2017-07-17T02:13:37.426Z,99.99
2017-07-17T02:14:46.280Z,99.99
2017-07-17T02:15:55.135Z,99.99
2017-07-17T02:17:04.034Z,99.99
2017-07-17T02:18:12.848Z,99.99
2017-07-17T02:19:21.703Z,99.99
2017-07-17T02:20:30.559Z,99.99
2017-07-17T02:21:39.511Z,99.99
2017-07-17T02:22:48.364Z,99.99
2017-07-17T02:23:57.220Z,99.99
2017-07-17T02:25:06.075Z,99.99
2017-07-17T02:26:14.929Z,99.99
2017-07-17T02:27:23.832Z,99.99
2017-07-17T02:28:32.688Z,99.99
2017-07-17T02:29:41.544Z,99.99
2017-07-17T02:30:50.402Z,99.99
2017-07-17T02:31:59.253Z,99.99
2017-07-17T02:33:08.308Z,99.99
2017-07-17T02:34:17.164Z,99.99
2017-07-17T02:35:26.020Z,99.99
2017-07-17T02:36:34.874Z,99.99
2017-07-17T02:37:43.726Z,99.99
2017-07-17T02:38:52.829Z,99.99
2017-07-17T02:40:01.683Z,99.99
2017-07-17T02:41:10.535Z,99.99
2017-07-17T02:42:19.438Z,99.99
2017-07-17T02:43:28.291Z,99.99
2017-07-17T02:44:37.397Z,99.99
2017-07-17T02:45:46.252Z,99.99
2017-07-17T02:46:55.106Z,99.99
2017-07-17T02:48:03.958Z,99.99
2017-07-17T02:49:12.812Z,99.99
2017-07-17T02:50:21.816Z,99.99
2017-07-17T02:51:30.671Z,99.99
2017-07-17T02:52:39.525Z,99.99
2017-07-17T02:53:48.391Z,99.99
2017-07-17T02:54:57.237Z,99.99
2017-07-17T02:56:06.242Z,99.99
2017-07-17T02:57:15.096Z,99.99
2017-07-17T02:58:23.949Z,99.99
2017-07-17T02:59:32.801Z,99.99
2017-07-17T03:00:41.654Z,99.99
2017-07-17T03:01:50.557Z,99.99
2017-07-17T03:02:59.412Z,99.99
2017-07-17T03:04:08.266Z,99.99
2017-07-17T03:05:17.119Z,99.99
2017-07-17T03:06:25.973Z,99.99
2017-07-17T03:07:35.231Z,99.99
2017-07-17T03:08:44.082Z,99.99
2017-07-17T03:09:52.935Z,99.99
2017-07-17T03:11:01.790Z,99.99
2017-07-17T03:12:10.645Z,99.99
2017-07-17T03:13:19.600Z,99.99
2017-07-17T03:14:28.453Z,99.99
2017-07-17T03:15:37.305Z,99.99
2017-07-17T03:16:46.160Z,99.99
2017-07-17T03:17:55.013Z,99.99
2017-07-17T03:19:03.916Z,99.99
2017-07-17T03:20:12.771Z,99.99
2017-07-17T03:21:21.628Z,99.99
2017-07-17T03:22:30.482Z,99.99
2017-07-17T03:23:39.337Z,99.99
2017-07-17T03:24:48.187Z,99.99
2017-07-17T03:25:57.040Z,99.99
2017-07-17T03:27:05.893Z,99.99
2017-07-17T03:28:14.747Z,99.99
2017-07-17T03:29:23.601Z,99.99
2017-07-17T03:30:32.554Z,99.99
2017-07-17T03:31:41.409Z,99.99
2017-07-17T03:32:50.263Z,99.99
2017-07-17T03:33:59.117Z,99.99
2017-07-17T03:35:07.971Z,99.99
2017-07-17T03:36:16.977Z,99.99
2017-07-17T03:37:25.830Z,99.99
2017-07-17T03:38:34.685Z,99.99
2017-07-17T03:39:43.537Z,99.99
2017-07-17T03:40:52.389Z,99.99
2017-07-17T03:42:01.393Z,99.99
2017-07-17T03:43:10.244Z,99.99
2017-07-17T03:44:19.097Z,99.99
2017-07-17T03:45:27.951Z,99.99
2017-07-17T03:46:36.806Z,99.99
2017-07-17T03:47:45.760Z,99.99
2017-07-17T03:48:54.613Z,99.99
2017-07-17T03:50:03.465Z,99.99
2017-07-17T03:51:12.317Z,99.99
2017-07-17T03:52:21.171Z,99.99
2017-07-17T03:53:30.076Z,99.99
2017-07-17T03:54:38.929Z,99.99
2017-07-17T03:55:47.782Z,99.99
2017-07-17T03:56:56.636Z,99.99
2017-07-17T03:58:05.491Z,99.99
2017-07-17T03:59:14.644Z,99.99
2017-07-17T04:00:23.498Z,99.99
2017-07-17T04:01:32.352Z,99.99
2017-07-17T04:02:41.204Z,99.99
2017-07-17T04:03:50.055Z,99.99
2017-07-17T04:04:58.959Z,99.99
2017-07-17T04:06:07.814Z,99.99
2017-07-17T04:07:16.669Z,99.99
2017-07-17T04:08:25.524Z,99.99
2017-07-17T04:09:34.378Z,99.99
2017-07-17T04:10:43.230Z,99.99
2017-07-17T04:11:52.084Z,99.99
2017-07-17T04:13:00.940Z,99.99
2017-07-17T04:14:09.794Z,99.99
2017-07-17T04:15:18.647Z,99.99
2017-07-17T04:16:27.750Z,99.99
2017-07-17T04:17:36.606Z,99.99
2017-07-17T04:18:45.466Z,99.99
2017-07-17T04:19:54.316Z,99.99
2017-07-17T04:21:03.169Z,99.99
2017-07-17T04:22:12.072Z,99.99
2017-07-17T04:23:20.927Z,99.99
2017-07-17T04:24:29.782Z,99.99
2017-07-17T04:25:38.636Z,99.99
2017-07-17T04:26:47.491Z,99.99
2017-07-17T04:27:56.344Z,99.99
2017-07-17T04:29:05.194Z,99.99
2017-07-17T04:30:14.048Z,99.99
2017-07-17T04:31:22.900Z,99.99
2017-07-17T04:32:31.756Z,99.99
2017-07-17T04:33:40.759Z,99.99
2017-07-17T04:34:49.613Z,99.99
2017-07-17T04:35:58.468Z,99.99
2017-07-17T04:37:07.322Z,99.99
2017-07-17T04:38:16.175Z,99.99
2017-07-17T04:39:25.179Z,99.99
2017-07-17T04:40:34.033Z,99.99
2017-07-17T04:41:42.887Z,99.99
2017-07-17T04:42:51.741Z,99.99
2017-07-17T04:44:00.595Z,99.99
2017-07-17T04:45:09.598Z,99.99
2017-07-17T04:46:18.452Z,99.99
2017-07-17T04:47:27.305Z,99.99
2017-07-17T04:48:36.160Z,99.99
2017-07-17T04:49:45.056Z,99.99
2017-07-17T04:50:53.918Z,99.99
2017-07-17T04:52:02.773Z,99.99
2017-07-17T04:53:11.628Z,99.99
2017-07-17T04:54:20.480Z,99.99
2017-07-17T04:55:29.333Z,99.99
2017-07-17T04:56:38.283Z,99.99
2017-07-17T04:57:47.136Z,99.99
2017-07-17T04:58:55.991Z,99.99
2017-07-17T05:00:04.851Z,99.99
2017-07-17T05:01:13.752Z,99.99
2017-07-17T05:02:22.709Z,99.99
2017-07-17T05:03:31.564Z,99.99
2017-07-17T05:04:40.416Z,99.99
2017-07-17T05:05:49.270Z,99.99
2017-07-17T05:06:58.122Z,99.99
2017-07-17T05:08:07.127Z,99.99
2017-07-17T05:09:15.981Z,99.99
2017-07-17T05:10:24.838Z,99.99
2017-07-17T05:11:33.692Z,99.99
2017-07-17T05:12:42.545Z,99.99
2017-07-17T05:13:51.598Z,99.99
2017-07-17T05:15:00.451Z,99.99
2017-07-17T05:16:09.305Z,99.99
2017-07-17T05:17:18.501Z,99.99
2017-07-17T05:18:27.356Z,99.99
2017-07-17T05:19:36.462Z,99.99
2017-07-17T05:20:45.320Z,99.99
2017-07-17T05:21:54.505Z,99.99
2017-07-17T05:23:03.361Z,99.99
2017-07-17T05:24:12.216Z,99.99
2017-07-17T05:25:21.221Z,99.99
2017-07-17T05:26:30.076Z,99.99
2017-07-17T05:27:38.930Z,99.99
2017-07-17T05:28:47.785Z,99.99
2017-07-17T05:29:56.646Z,99.99
2017-07-17T05:31:05.647Z,99.99
2017-07-17T05:32:14.500Z,99.99
2017-07-17T05:33:23.352Z,99.99
2017-07-17T05:34:32.208Z,99.99
2017-07-17T05:35:41.063Z,99.99
2017-07-17T05:36:50.218Z,99.99
2017-07-17T05:37:59.073Z,99.99
2017-07-17T05:39:07.927Z,99.99
2017-07-17T05:40:16.781Z,99.99
2017-07-17T05:41:25.636Z,99.99
2017-07-17T05:42:34.591Z,99.99
2017-07-17T05:43:43.476Z,99.99
2017-07-17T05:44:52.301Z,99.99
2017-07-17T05:46:01.158Z,99.99
2017-07-17T05:47:10.013Z,99.99
2017-07-17T05:48:18.868Z,99.99
2017-07-17T05:49:27.724Z,99.99
2017-07-17T05:50:36.578Z,99.99
2017-07-17T05:51:45.431Z,99.99
2017-07-17T05:52:54.285Z,99.99
2017-07-17T05:54:03.139Z,99.99
2017-07-17T05:55:11.994Z,99.99
2017-07-17T05:56:20.850Z,99.99
2017-07-17T05:57:29.706Z,99.99
2017-07-17T05:58:38.562Z,99.99
2017-07-17T05:59:47.417Z,99.99
2017-07-17T06:00:56.277Z,99.99
2017-07-17T06:02:05.461Z,99.99
2017-07-17T06:03:14.314Z,99.99
2017-07-17T06:04:23.168Z,99.99
2017-07-17T06:05:32.023Z,99.99
2017-07-17T06:06:40.876Z,99.99
2017-07-17T06:07:49.751Z,99.99
2017-07-17T06:08:58.610Z,99.99
2017-07-17T06:10:07.463Z,99.99
2017-07-17T06:11:16.319Z,99.99
2017-07-17T06:12:25.174Z,99.99
2017-07-17T06:13:34.029Z,99.99
2017-07-17T06:14:42.882Z,99.99
2017-07-17T06:15:51.734Z,99.99
2017-07-17T06:17:00.597Z,99.99
2017-07-17T06:18:09.453Z,99.99
2017-07-17T06:19:18.310Z,99.99
2017-07-17T06:20:27.166Z,99.99
2017-07-17T06:21:36.019Z,99.99
2017-07-17T06:22:44.876Z,99.99
2017-07-17T06:23:53.731Z,99.99
2017-07-17T06:25:02.586Z,99.99
2017-07-17T06:26:11.439Z,99.99
2017-07-17T06:27:20.292Z,99.99
2017-07-17T06:28:29.148Z,99.99
2017-07-17T06:29:38.340Z,99.99
2017-07-17T06:30:47.346Z,99.99
2017-07-17T06:31:56.203Z,99.99
2017-07-17T06:33:05.059Z,99.99
2017-07-17T06:34:13.913Z,99.99
2017-07-17T06:35:22.767Z,99.99
2017-07-17T06:36:31.671Z,99.99
2017-07-17T06:37:40.531Z,99.99
2017-07-17T06:38:49.394Z,99.99
2017-07-17T06:39:58.312Z,99.99
2017-07-17T06:41:07.168Z,99.99
2017-07-17T06:42:16.283Z,99.99
2017-07-17T06:43:25.141Z,99.99
2017-07-17T06:44:34.012Z,99.99
2017-07-17T06:45:42.867Z,99.99
2017-07-17T06:46:51.722Z,99.99
2017-07-17T06:48:00.696Z,99.99
2017-07-17T06:49:09.550Z,99.99
2017-07-17T06:50:18.406Z,99.99
2017-07-17T06:51:27.261Z,99.99
2017-07-17T06:52:36.116Z,99.99
2017-07-17T06:53:45.121Z,99.99
2017-07-17T06:54:53.977Z,99.99
2017-07-17T06:56:02.832Z,99.99
2017-07-17T06:57:11.688Z,99.99
2017-07-17T06:58:20.542Z,99.99
2017-07-17T06:59:29.396Z,99.99
2017-07-17T07:00:38.256Z,99.99
2017-07-17T07:01:47.117Z,99.99
2017-07-17T07:02:55.975Z,99.99
2017-07-17T07:04:04.842Z,99.99
2017-07-17T07:05:13.747Z,99.99
2017-07-17T07:06:22.600Z,99.99
2017-07-17T07:07:31.459Z,99.99
2017-07-17T07:08:40.317Z,99.99
2017-07-17T07:09:49.174Z,99.99
2017-07-17T07:10:58.181Z,99.99
2017-07-17T07:12:07.036Z,99.99
2017-07-17T07:13:15.894Z,99.99
2017-07-17T07:14:24.750Z,99.99
2017-07-17T07:15:33.610Z,99.99
2017-07-17T07:16:42.466Z,99.99
2017-07-17T07:17:51.320Z,99.99
2017-07-17T07:19:00.180Z,99.99
2017-07-17T07:20:09.040Z,99.99
2017-07-17T07:21:17.894Z,99.99
2017-07-17T07:22:26.900Z,99.99
2017-07-17T07:23:35.760Z,99.99
2017-07-17T07:24:44.615Z,99.99
2017-07-17T07:25:53.474Z,99.99
2017-07-17T07:27:02.329Z,99.99
2017-07-17T07:28:11.331Z,99.99
2017-07-17T07:29:20.191Z,99.99
2017-07-17T07:30:29.055Z,99.99
2017-07-17T07:31:37.910Z,99.99
2017-07-17T07:32:46.764Z,99.99
2017-07-17T07:33:55.971Z,99.99
2017-07-17T07:35:04.828Z,99.99
2017-07-17T07:36:13.726Z,99.99
2017-07-17T07:37:22.543Z,99.99
2017-07-17T07:38:31.403Z,99.99
2017-07-17T07:39:40.560Z,99.99
2017-07-17T07:40:49.423Z,99.99
2017-07-17T07:41:58.275Z,99.99
2017-07-17T07:43:07.467Z,99.99
2017-07-17T07:44:16.323Z,99.99
2017-07-17T07:45:25.230Z,99.99
2017-07-17T07:46:34.086Z,99.99
2017-07-17T07:47:42.942Z,99.99
2017-07-17T07:48:51.801Z,99.99
2017-07-17T07:50:00.683Z,99.99
2017-07-17T07:51:09.762Z,99.99
2017-07-17T07:52:18.620Z,99.99
2017-07-17T07:53:27.484Z,99.99
2017-07-17T07:54:36.352Z,99.99
2017-07-17T07:55:45.223Z,99.99
2017-07-17T07:56:54.239Z,99.99
2017-07-17T07:58:03.102Z,99.99
2017-07-17T07:59:12.010Z,99.99
2017-07-17T08:00:20.841Z,99.99
2017-07-17T08:01:29.700Z,99.99
2017-07-17T08:02:38.660Z,99.99
2017-07-17T08:03:47.529Z,99.99
2017-07-17T08:04:56.392Z,99.99
2017-07-17T08:06:05.249Z,99.99
2017-07-17T08:07:14.110Z,99.99
2017-07-17T08:08:23.170Z,99.99
2017-07-17T08:09:32.032Z,99.99
2017-07-17T08:10:40.928Z,99.99
2017-07-17T08:11:49.786Z,99.99
2017-07-17T08:12:58.647Z,99.99
2017-07-17T08:14:07.768Z,99.99
2017-07-17T08:15:16.634Z,99.99
2017-07-17T08:16:25.495Z,99.99
2017-07-17T08:17:34.356Z,99.96
2017-07-17T08:18:43.364Z,99.99
2017-07-17T08:19:52.670Z,99.99
2017-07-17T08:21:01.529Z,99.99
2017-07-17T08:22:10.405Z,99.99
2017-07-17T08:23:19.271Z,99.99
2017-07-17T08:24:28.124Z,99.99
2017-07-17T08:25:37.134Z,99.99
2017-07-17T08:26:46.008Z,99.99
2017-07-17T08:27:54.930Z,99.39
2017-07-17T08:29:03.811Z,97.61
2017-07-17T08:30:12.669Z,98.86
2017-07-17T08:31:21.683Z,98.29
2017-07-17T08:32:30.541Z,99.99
2017-07-17T08:33:39.407Z,96.18
2017-07-17T08:34:48.266Z,98.77
2017-07-17T08:35:57.126Z,95.98
2017-07-17T08:37:06.149Z,99.25
2017-07-17T08:38:15.015Z,99.99
2017-07-17T08:39:23.880Z,98.67
2017-07-17T08:40:32.741Z,95.79
2017-07-17T08:41:41.600Z,95.03
2017-07-17T08:42:50.758Z,96.85
2017-07-17T08:43:59.616Z,96.08
2017-07-17T08:45:08.479Z,97.95
2017-07-17T08:46:17.335Z,98.86
2017-07-17T08:47:26.195Z,95.12
2017-07-17T08:48:35.205Z,93.97
2017-07-17T08:49:44.062Z,99.99
2017-07-17T08:50:52.921Z,94.74
2017-07-17T08:52:01.778Z,90.7
2017-07-17T08:53:10.970Z,93.01
2017-07-17T08:54:20.029Z,89.55
2017-07-17T08:55:28.891Z,89.94
2017-07-17T08:56:37.746Z,92.43
2017-07-17T08:57:46.606Z,93.59
2017-07-17T08:58:55.462Z,99.99
2017-07-17T09:00:04.469Z,99.99
2017-07-17T09:01:13.326Z,93.77
2017-07-17T09:02:22.185Z,98.1
2017-07-17T09:03:31.046Z,95.41
2017-07-17T09:04:39.946Z,92.72
2017-07-17T09:05:49.106Z,96.8
2017-07-17T09:06:57.966Z,92
2017-07-17T09:08:06.829Z,92.38
2017-07-17T09:09:15.688Z,96.42
2017-07-17T09:10:24.557Z,96.03
2017-07-17T09:11:33.565Z,99.3
2017-07-17T09:12:42.425Z,95.45
2017-07-17T09:13:51.288Z,88.35
2017-07-17T09:15:00.148Z,85.57
2017-07-17T09:16:09.011Z,94.01
2017-07-17T09:17:18.019Z,89.69
2017-07-17T09:18:26.899Z,90.08
2017-07-17T09:19:35.760Z,90.46
2017-07-17T09:20:44.618Z,95.75
2017-07-17T09:21:53.500Z,91.13
2017-07-17T09:23:02.486Z,91.9
2017-07-17T09:24:11.348Z,93.73
2017-07-17T09:25:20.212Z,93.73
2017-07-17T09:26:29.071Z,87.49
2017-07-17T09:27:37.953Z,86.33
2017-07-17T09:28:46.963Z,88.83
2017-07-17T09:29:55.824Z,85.08
2017-07-17T09:31:04.782Z,86.57
2017-07-17T09:32:13.641Z,86.47
2017-07-17T09:33:22.501Z,88.59
2017-07-17T09:34:31.709Z,91.18
2017-07-17T09:35:40.570Z,85.99
2017-07-17T09:36:49.428Z,89.93
2017-07-17T09:37:58.307Z,89.93
2017-07-17T09:39:07.164Z,91.47
2017-07-17T09:40:16.071Z,94.26
2017-07-17T09:41:24.936Z,84.45
2017-07-17T09:42:33.795Z,86.38
2017-07-17T09:43:42.655Z,84.36
2017-07-17T09:44:51.512Z,90.6
2017-07-17T09:46:00.418Z,84.17
2017-07-17T09:47:09.277Z,91.37
2017-07-17T09:48:18.473Z,84.55
2017-07-17T09:49:27.711Z,85.22
2017-07-17T09:50:37.141Z,85.51
2017-07-17T09:51:46.103Z,85.17
2017-07-17T09:52:55.312Z,84.3
2017-07-17T09:54:04.170Z,91.42
2017-07-17T09:55:13.691Z,87.48
2017-07-17T09:56:22.559Z,91.61
2017-07-17T09:57:31.768Z,87.96
2017-07-17T09:58:40.854Z,86.8
2017-07-17T09:59:49.718Z,81.71
2017-07-17T10:00:58.590Z,82.09
2017-07-17T10:02:07.458Z,81.52
2017-07-17T10:03:16.628Z,79.11
2017-07-17T10:04:25.490Z,81.23
2017-07-17T10:05:34.351Z,78.44
2017-07-17T10:06:43.221Z,82.48
2017-07-17T10:07:52.109Z,82.67
2017-07-17T10:09:01.081Z,77.09
2017-07-17T10:10:09.960Z,78.63
2017-07-17T10:11:18.853Z,77.48
2017-07-17T10:12:27.720Z,75.84
2017-07-17T10:13:36.913Z,79.11
2017-07-17T10:14:45.972Z,77.29
2017-07-17T10:15:55.191Z,81.71
2017-07-17T10:17:04.113Z,84.88
2017-07-17T10:18:12.972Z,79.44
2017-07-17T10:19:21.874Z,82.19
2017-07-17T10:20:30.883Z,83.06
2017-07-17T10:21:39.754Z,84.4
2017-07-17T10:22:48.613Z,85.07
2017-07-17T10:23:57.472Z,86.52
2017-07-17T10:25:06.332Z,80.3
2017-07-17T10:26:15.194Z,85.02
2017-07-17T10:27:24.054Z,81.75
2017-07-17T10:28:32.934Z,76.94
2017-07-17T10:29:41.789Z,78.77
2017-07-17T10:30:50.744Z,79.82
2017-07-17T10:31:59.681Z,81.27
2017-07-17T10:33:08.546Z,80.02
2017-07-17T10:34:17.405Z,77.9
2017-07-17T10:35:26.326Z,78.52
2017-07-17T10:36:35.188Z,77.71
2017-07-17T10:37:44.196Z,78.96
2017-07-17T10:38:53.055Z,77.17
2017-07-17T10:40:01.916Z,74.09
2017-07-17T10:41:10.804Z,76.78
2017-07-17T10:42:19.636Z,75.98
2017-07-17T10:43:28.795Z,76.46
2017-07-17T10:44:37.654Z,75.59
2017-07-17T10:45:46.512Z,78.77
2017-07-17T10:46:55.371Z,80.3
2017-07-17T10:48:04.231Z,78.81
2017-07-17T10:49:13.089Z,80.3
2017-07-17T10:50:21.947Z,75.63
2017-07-17T10:51:30.807Z,74.54
2017-07-17T10:52:39.666Z,74.15
2017-07-17T10:53:48.524Z,79.28
2017-07-17T10:54:57.715Z,77.75
2017-07-17T10:56:06.575Z,77.36
2017-07-17T10:57:15.433Z,77.26
2017-07-17T10:58:24.292Z,74.57
2017-07-17T10:59:33.151Z,71.78
2017-07-17T11:00:42.310Z,72.07
2017-07-17T11:01:51.170Z,70.82
2017-07-17T11:03:00.360Z,76.21
2017-07-17T11:04:09.217Z,73.32
2017-07-17T11:05:18.079Z,72.45
2017-07-17T11:06:27.036Z,70.24
2017-07-17T11:07:35.893Z,71.97
2017-07-17T11:08:44.756Z,72.45
2017-07-17T11:09:53.616Z,73.46
2017-07-17T11:11:02.473Z,71.88
2017-07-17T11:12:11.382Z,71.01
2017-07-17T11:13:20.242Z,72.94
2017-07-17T11:14:29.102Z,75.44
2017-07-17T11:15:37.961Z,70.95
2017-07-17T11:16:46.821Z,70.28
2017-07-17T11:17:55.831Z,73.55
2017-07-17T11:19:04.688Z,72.78
2017-07-17T11:20:13.549Z,76.73
2017-07-17T11:21:22.409Z,78.27
2017-07-17T11:22:31.265Z,74.71
2017-07-17T11:23:40.614Z,74.41
2017-07-17T11:24:49.472Z,77.44
2017-07-17T11:25:58.330Z,71.85
2017-07-17T11:27:07.187Z,74.74
2017-07-17T11:28:16.048Z,72.05
2017-07-17T11:29:25.408Z,71.66
2017-07-17T11:30:34.268Z,70.06
2017-07-17T11:31:43.132Z,71.18
2017-07-17T11:32:51.993Z,72.85
2017-07-17T11:34:00.853Z,71.41
2017-07-17T11:35:09.914Z,73.62
2017-07-17T11:36:18.776Z,68.13
2017-07-17T11:37:27.661Z,70.44
2017-07-17T11:38:36.527Z,71.41
2017-07-17T11:39:45.395Z,71.5
2017-07-17T11:40:54.596Z,71.98
2017-07-17T11:42:03.455Z,70.64
2017-07-17T11:43:12.348Z,70.44
2017-07-17T11:44:21.204Z,68.42
2017-07-17T11:45:30.073Z,73.33
2017-07-17T11:56:11.131Z,67.97
2017-07-17T11:57:20.279Z,69.8
2017-07-17T11:58:28.975Z,68.16
2017-07-17T11:59:37.825Z,71.06
2017-07-17T12:00:47.084Z,69.03
2017-07-17T12:01:55.941Z,66.36
2017-07-17T12:04:43.430Z,64.72
2017-07-17T12:05:52.293Z,64.53
2017-07-17T12:07:01.148Z,67.14
2017-07-17T12:08:10.234Z,65.24
2017-07-17T12:09:19.168Z,66.11
2017-07-17T12:10:28.474Z,66.66
2017-07-17T12:11:37.346Z,70.32
2017-07-17T12:12:46.202Z,64.53
2017-07-17T12:13:55.255Z,67.4
2017-07-17T12:15:04.110Z,67.3
2017-07-17T12:16:12.971Z,66.52
2017-07-17T12:17:22.157Z,63.73
2017-07-17T12:18:31.074Z,64.79
2017-07-17T12:19:40.076Z,64.59
2017-07-17T12:20:48.930Z,64.59
2017-07-17T12:21:57.781Z,64.21
2017-07-17T12:23:06.630Z,64.5
2017-07-17T12:24:15.481Z,65.56
2017-07-17T12:25:24.508Z,64.02
2017-07-17T12:26:33.336Z,64.72
2017-07-17T12:27:42.193Z,63.21
2017-07-17T12:28:51.393Z,68.01
2017-07-17T12:30:00.244Z,61.74
2017-07-17T12:31:09.146Z,64.43
2017-07-17T12:32:17.998Z,64.05
2017-07-17T12:33:26.856Z,66.66
2017-07-17T12:34:35.710Z,67.14
2017-07-17T12:35:44.564Z,66.46
2017-07-17T12:36:53.418Z,63.02
2017-07-17T12:38:02.272Z,63.12
2017-07-17T12:39:11.475Z,66.69
2017-07-17T12:40:20.326Z,64.47
2017-07-17T12:41:29.179Z,62.25
2017-07-17T12:42:38.130Z,62.63
2017-07-17T12:43:46.983Z,63.31
2017-07-17T12:44:56.176Z,62.63
2017-07-17T12:46:05.032Z,62.86
2017-07-17T12:47:13.886Z,60.35
2017-07-17T12:48:22.795Z,61.22
2017-07-17T12:49:31.980Z,60.76
2017-07-17T12:50:40.835Z,60.38
2017-07-17T12:51:49.694Z,60.96
2017-07-17T12:52:58.552Z,59.25
2017-07-17T12:54:07.564Z,59.44
2017-07-17T12:55:16.420Z,58.67
2017-07-17T12:56:25.279Z,58.76
2017-07-17T12:57:34.139Z,59.6
2017-07-17T12:58:43.328Z,58.8
2017-07-17T12:59:52.340Z,62.08
2017-07-17T13:01:01.195Z,61.22
2017-07-17T13:02:10.382Z,62.37
2017-07-17T13:03:19.238Z,61.31
2017-07-17T13:04:28.096Z,62.79
2017-07-17T13:05:37.105Z,60.38
2017-07-17T13:06:45.960Z,62.79
2017-07-17T13:07:54.816Z,64.34
2017-07-17T13:09:03.674Z,62.12
2017-07-17T13:10:12.532Z,60.86
2017-07-17T13:11:21.790Z,61.73
2017-07-17T13:12:30.648Z,64.24
2017-07-17T13:13:39.503Z,63.85
2017-07-17T13:14:48.361Z,62.12
2017-07-17T13:15:57.218Z,63.21
2017-07-17T13:17:06.479Z,60.89
2017-07-17T13:18:15.336Z,58.6
2017-07-17T13:19:24.195Z,57.28
2017-07-17T13:20:33.386Z,59.31
2017-07-17T13:21:42.581Z,59.38
2017-07-17T13:22:51.642Z,59.76
2017-07-17T13:24:00.837Z,57.82
2017-07-17T13:25:09.692Z,59.44
2017-07-17T13:26:18.551Z,59.05
2017-07-17T13:27:27.408Z,58.57
2017-07-17T13:28:36.648Z,58.86
2017-07-17T13:29:45.501Z,59.25
2017-07-17T13:30:54.358Z,60.38
2017-07-17T13:32:03.216Z,62.98
2017-07-17T13:33:12.070Z,62.6
2017-07-17T13:34:21.081Z,62.31
2017-07-17T13:35:29.938Z,62.79
2017-07-17T13:36:38.792Z,66.27
2017-07-17T13:37:47.648Z,62.79
2017-07-17T13:38:56.502Z,62.21
2017-07-17T13:40:05.359Z,62.89
2017-07-17T13:41:14.210Z,65.5
2017-07-17T13:42:23.063Z,62.12
2017-07-17T13:43:31.925Z,62.6
2017-07-17T13:44:40.793Z,61.73
2017-07-17T13:45:49.800Z,62.12
2017-07-17T13:46:58.657Z,60.57
2017-07-17T13:48:07.539Z,62.4
2017-07-17T13:49:16.395Z,64.43
2017-07-17T13:50:25.598Z,62.6
2017-07-17T13:51:34.625Z,62.02
2017-07-17T13:52:43.482Z,65.59
2017-07-17T13:53:52.359Z,59.89
2017-07-17T13:55:02.566Z,61.83
2017-07-17T13:56:12.877Z,60.83
2017-07-17T13:57:22.476Z,63.66
2017-07-17T13:58:32.021Z,64.72
2017-07-17T13:59:41.564Z,63.08
2017-07-17T14:00:51.434Z,62.98
2017-07-17T14:02:01.305Z,63.28
2017-07-17T14:03:11.334Z,62.5
2017-07-17T14:04:20.237Z,65.27
2017-07-17T14:05:30.118Z,62.21
2017-07-17T14:06:39.660Z,62.98
2017-07-17T14:07:49.201Z,63.18
2017-07-17T14:08:59.221Z,62.6
2017-07-17T14:10:09.415Z,62.79
2017-07-17T14:11:18.969Z,62.79
2017-07-17T14:12:28.512Z,64.43
2017-07-17T14:13:38.388Z,63.18
2017-07-17T14:14:47.839Z,62.7
2017-07-17T14:15:57.058Z,59.41
2017-07-17T14:17:07.268Z,60.67
2017-07-17T14:18:16.501Z,64.21
2017-07-17T14:19:26.372Z,62.89
2017-07-17T14:20:35.748Z,62.98
2017-07-17T14:21:44.964Z,61.63
2017-07-17T14:22:54.840Z,61.05
2017-07-17T14:24:04.398Z,62.79
2017-07-17T14:25:13.958Z,63.18
2017-07-17T14:26:24.054Z,63.28
2017-07-17T14:27:33.618Z,63.76
2017-07-17T14:28:43.173Z,62.6
2017-07-17T14:29:52.401Z,64.34
2017-07-17T14:31:02.587Z,63.18
2017-07-17T14:32:12.402Z,62.02
2017-07-17T14:33:22.302Z,62.44
2017-07-17T14:34:31.880Z,62.44
2017-07-17T14:35:41.114Z,60.53
2017-07-17T14:36:51.316Z,59.28
2017-07-17T14:38:01.084Z,59.95
2017-07-17T14:39:10.959Z,59.11
2017-07-17T14:40:19.865Z,58.85
2017-07-17T14:41:29.417Z,57.4
2017-07-17T14:42:39.608Z,59.36
2017-07-17T14:43:48.933Z,55.78
2017-07-17T14:44:58.480Z,56.07
2017-07-17T14:46:08.366Z,54.64
2017-07-17T14:47:17.608Z,56.2
2017-07-17T14:48:26.836Z,55.74
2017-07-17T14:49:36.044Z,56.32
2017-07-17T14:50:45.601Z,52.73
2017-07-17T14:51:55.154Z,52.18
2017-07-17T14:53:04.717Z,52.4
2017-07-17T14:54:14.274Z,51.43
2017-07-17T14:55:23.988Z,51.04
2017-07-17T14:56:33.544Z,50.68
2017-07-17T14:57:42.452Z,49.9
2017-07-17T14:58:51.681Z,49.12
2017-07-17T15:00:00.913Z,52.03